sensor_id;sensor_type;location;lat;lon;timestamp;P1;durP1;ratioP1;P2;durP2;ratioP2
19566;SDS011;9930;49.240;8.548;2024-02-04T00:00:01;4.50;;;3.55;;
19566;SDS011;9930;49.240;8.548;2024-02-04T00:02:28;3.85;;;3.45;;
19566;SDS011;9930;49.240;8.548;2024-02-04T00:04:53;4.20;;;3.90;;
19566;SDS011;9930;49.240;8.548;2024-02-04T00:07:19;4.65;;;4.25;;
19566;SDS011;9930;49.240;8.548;2024-02-04T00:09:45;5.50;;;5.00;;
19566;SDS011;9930;49.240;8.548;2024-02-04T00:12:12;4.70;;;4.30;;
19566;SDS011;9930;49.240;8.548;2024-02-04T00:14:38;4.85;;;4.45;;
19566;SDS011;9930;49.240;8.548;2024-02-04T00:17:03;5.13;;;4.70;;
19566;SDS011;9930;49.240;8.548;2024-02-04T00:19:29;5.65;;;5.07;;
19566;SDS011;9930;49.240;8.548;2024-02-04T00:21:55;4.40;;;4.00;;
19566;SDS011;9930;49.240;8.548;2024-02-04T00:24:21;4.03;;;3.58;;
19566;SDS011;9930;49.240;8.548;2024-02-04T00:26:47;4.00;;;3.70;;
19566;SDS011;9930;49.240;8.548;2024-02-04T00:29:13;4.72;;;3.45;;
19566;SDS011;9930;49.240;8.548;2024-02-04T00:31:39;3.97;;;3.50;;
19566;SDS011;9930;49.240;8.548;2024-02-04T00:34:05;4.10;;;3.80;;
19566;SDS011;9930;49.240;8.548;2024-02-04T00:36:30;4.13;;;3.72;;
19566;SDS011;9930;49.240;8.548;2024-02-04T00:38:56;5.55;;;3.60;;
19566;SDS011;9930;49.240;8.548;2024-02-04T00:41:22;3.88;;;3.58;;
19566;SDS011;9930;49.240;8.548;2024-02-04T00:43:48;4.32;;;3.92;;
19566;SDS011;9930;49.240;8.548;2024-02-04T00:46:14;4.20;;;3.80;;
19566;SDS011;9930;49.240;8.548;2024-02-04T00:48:39;4.20;;;3.90;;
19566;SDS011;9930;49.240;8.548;2024-02-04T00:51:06;4.50;;;4.10;;
19566;SDS011;9930;49.240;8.548;2024-02-04T00:53:32;4.40;;;4.00;;
19566;SDS011;9930;49.240;8.548;2024-02-04T00:56:01;4.55;;;4.15;;
19566;SDS011;9930;49.240;8.548;2024-02-04T00:58:28;4.43;;;3.90;;
19566;SDS011;9930;49.240;8.548;2024-02-04T01:00:54;5.38;;;4.88;;
19566;SDS011;9930;49.240;8.548;2024-02-04T01:03:20;5.10;;;4.60;;
19566;SDS011;9930;49.240;8.548;2024-02-04T01:05:46;4.95;;;4.45;;
19566;SDS011;9930;49.240;8.548;2024-02-04T01:08:12;5.20;;;4.70;;
19566;SDS011;9930;49.240;8.548;2024-02-04T01:10:38;4.50;;;4.10;;
19566;SDS011;9930;49.240;8.548;2024-02-04T01:13:03;4.72;;;4.38;;
19566;SDS011;9930;49.240;8.548;2024-02-04T01:15:29;5.15;;;4.72;;
19566;SDS011;9930;49.240;8.548;2024-02-04T01:17:55;4.88;;;4.47;;
19566;SDS011;9930;49.240;8.548;2024-02-04T01:20:21;4.70;;;4.30;;
19566;SDS011;9930;49.240;8.548;2024-02-04T01:22:47;6.00;;;4.80;;
19566;SDS011;9930;49.240;8.548;2024-02-04T01:25:13;4.85;;;4.45;;
19566;SDS011;9930;49.240;8.548;2024-02-04T01:27:39;4.70;;;4.30;;
19566;SDS011;9930;49.240;8.548;2024-02-04T01:30:05;7.78;;;5.85;;
19566;SDS011;9930;49.240;8.548;2024-02-04T01:32:31;6.63;;;5.45;;
19566;SDS011;9930;49.240;8.548;2024-02-04T01:34:57;5.65;;;4.80;;
19566;SDS011;9930;49.240;8.548;2024-02-04T01:37:22;4.97;;;4.47;;
19566;SDS011;9930;49.240;8.548;2024-02-04T01:39:48;4.70;;;4.30;;
19566;SDS011;9930;49.240;8.548;2024-02-04T01:42:14;4.20;;;3.88;;
19566;SDS011;9930;49.240;8.548;2024-02-04T01:44:40;4.70;;;4.30;;
19566;SDS011;9930;49.240;8.548;2024-02-04T01:47:06;4.93;;;4.28;;
19566;SDS011;9930;49.240;8.548;2024-02-04T01:49:32;4.38;;;4.07;;
19566;SDS011;9930;49.240;8.548;2024-02-04T01:51:58;4.57;;;4.18;;
19566;SDS011;9930;49.240;8.548;2024-02-04T01:54:24;4.32;;;4.00;;
19566;SDS011;9930;49.240;8.548;2024-02-04T01:56:50;4.55;;;4.20;;
19566;SDS011;9930;49.240;8.548;2024-02-04T01:59:21;4.47;;;4.07;;
19566;SDS011;9930;49.240;8.548;2024-02-04T02:02:02;4.63;;;4.22;;
19566;SDS011;9930;49.240;8.548;2024-02-04T02:04:28;4.75;;;4.35;;
19566;SDS011;9930;49.240;8.548;2024-02-04T02:06:54;4.60;;;4.20;;
19566;SDS011;9930;49.240;8.548;2024-02-04T02:09:20;4.30;;;4.00;;
19566;SDS011;9930;49.240;8.548;2024-02-04T02:11:47;4.03;;;3.67;;
19566;SDS011;9930;49.240;8.548;2024-02-04T02:14:30;4.00;;;3.63;;
19566;SDS011;9930;49.240;8.548;2024-02-04T02:17:02;4.40;;;4.00;;
19566;SDS011;9930;49.240;8.548;2024-02-04T02:25:11;4.15;;;3.60;;
19566;SDS011;9930;49.240;8.548;2024-02-04T02:27:50;4.13;;;3.80;;
19566;SDS011;9930;49.240;8.548;2024-02-04T02:30:17;3.60;;;3.30;;
19566;SDS011;9930;49.240;8.548;2024-02-04T02:32:43;3.72;;;3.42;;
19566;SDS011;9930;49.240;8.548;2024-02-04T02:35:12;3.92;;;3.63;;
19566;SDS011;9930;49.240;8.548;2024-02-04T02:38:31;4.10;;;3.80;;
19566;SDS011;9930;49.240;8.548;2024-02-04T02:43:07;4.07;;;3.67;;
19566;SDS011;9930;49.240;8.548;2024-02-04T02:45:36;3.60;;;3.30;;
19566;SDS011;9930;49.240;8.548;2024-02-04T02:48:07;3.35;;;3.05;;
19566;SDS011;9930;49.240;8.548;2024-02-04T02:50:34;3.83;;;3.53;;
19566;SDS011;9930;49.240;8.548;2024-02-04T02:53:01;3.83;;;3.53;;
19566;SDS011;9930;49.240;8.548;2024-02-04T02:55:26;3.85;;;3.55;;
19566;SDS011;9930;49.240;8.548;2024-02-04T02:57:52;3.38;;;3.17;;
19566;SDS011;9930;49.240;8.548;2024-02-04T03:00:18;3.90;;;3.50;;
19566;SDS011;9930;49.240;8.548;2024-02-04T03:02:44;3.60;;;3.30;;
19566;SDS011;9930;49.240;8.548;2024-02-04T03:05:10;3.83;;;3.53;;
19566;SDS011;9930;49.240;8.548;2024-02-04T03:07:37;3.55;;;3.25;;
19566;SDS011;9930;49.240;8.548;2024-02-04T03:10:02;3.50;;;3.20;;
19566;SDS011;9930;49.240;8.548;2024-02-04T03:12:28;3.58;;;3.28;;
19566;SDS011;9930;49.240;8.548;2024-02-04T03:14:54;3.17;;;2.97;;
19566;SDS011;9930;49.240;8.548;2024-02-04T03:17:20;3.50;;;3.20;;
19566;SDS011;9930;49.240;8.548;2024-02-04T03:19:47;3.00;;;2.80;;
19566;SDS011;9930;49.240;8.548;2024-02-04T03:22:14;3.47;;;3.20;;
19566;SDS011;9930;49.240;8.548;2024-02-04T03:24:40;3.17;;;2.97;;
19566;SDS011;9930;49.240;8.548;2024-02-04T03:27:06;3.60;;;3.30;;
19566;SDS011;9930;49.240;8.548;2024-02-04T03:29:32;3.47;;;3.13;;
19566;SDS011;9930;49.240;8.548;2024-02-04T03:31:58;2.85;;;2.65;;
19566;SDS011;9930;49.240;8.548;2024-02-04T03:34:26;3.00;;;2.80;;
19566;SDS011;9930;49.240;8.548;2024-02-04T03:36:52;2.90;;;2.70;;
19566;SDS011;9930;49.240;8.548;2024-02-04T03:39:18;3.45;;;3.10;;
19566;SDS011;9930;49.240;8.548;2024-02-04T03:41:43;2.95;;;2.75;;
19566;SDS011;9930;49.240;8.548;2024-02-04T03:44:09;2.75;;;2.55;;
19566;SDS011;9930;49.240;8.548;2024-02-04T03:46:35;2.60;;;2.40;;
19566;SDS011;9930;49.240;8.548;2024-02-04T03:49:01;2.97;;;2.70;;
19566;SDS011;9930;49.240;8.548;2024-02-04T03:51:27;2.60;;;2.40;;
19566;SDS011;9930;49.240;8.548;2024-02-04T03:53:52;2.42;;;2.22;;
19566;SDS011;9930;49.240;8.548;2024-02-04T03:56:18;2.58;;;2.38;;
19566;SDS011;9930;49.240;8.548;2024-02-04T03:58:44;2.38;;;2.17;;
19566;SDS011;9930;49.240;8.548;2024-02-04T04:01:10;2.20;;;2.00;;
19566;SDS011;9930;49.240;8.548;2024-02-04T04:03:40;2.30;;;2.10;;
19566;SDS011;9930;49.240;8.548;2024-02-04T04:06:09;1.90;;;1.80;;
19566;SDS011;9930;49.240;8.548;2024-02-04T04:08:36;1.90;;;1.80;;
19566;SDS011;9930;49.240;8.548;2024-02-04T04:11:02;2.15;;;1.95;;
19566;SDS011;9930;49.240;8.548;2024-02-04T04:13:28;2.00;;;1.90;;
19566;SDS011;9930;49.240;8.548;2024-02-04T04:15:54;2.17;;;1.98;;
19566;SDS011;9930;49.240;8.548;2024-02-04T04:18:20;2.15;;;1.98;;
19566;SDS011;9930;49.240;8.548;2024-02-04T04:20:45;1.83;;;1.73;;
19566;SDS011;9930;49.240;8.548;2024-02-04T04:23:12;1.67;;;1.58;;
19566;SDS011;9930;49.240;8.548;2024-02-04T04:25:38;1.63;;;1.52;;
19566;SDS011;9930;49.240;8.548;2024-02-04T04:28:03;1.70;;;1.60;;
19566;SDS011;9930;49.240;8.548;2024-02-04T04:30:29;1.80;;;1.70;;
19566;SDS011;9930;49.240;8.548;2024-02-04T04:32:56;1.75;;;1.65;;
19566;SDS011;9930;49.240;8.548;2024-02-04T04:35:23;1.52;;;1.42;;
19566;SDS011;9930;49.240;8.548;2024-02-04T04:37:49;1.75;;;1.65;;
19566;SDS011;9930;49.240;8.548;2024-02-04T04:40:15;1.60;;;1.50;;
19566;SDS011;9930;49.240;8.548;2024-02-04T04:42:42;1.65;;;1.55;;
19566;SDS011;9930;49.240;8.548;2024-02-04T04:45:08;1.80;;;1.70;;
19566;SDS011;9930;49.240;8.548;2024-02-04T04:47:35;1.85;;;1.50;;
19566;SDS011;9930;49.240;8.548;2024-02-04T04:50:02;1.63;;;1.52;;
19566;SDS011;9930;49.240;8.548;2024-02-04T04:52:30;1.70;;;1.60;;
19566;SDS011;9930;49.240;8.548;2024-02-04T04:54:56;1.73;;;1.63;;
19566;SDS011;9930;49.240;8.548;2024-02-04T04:57:25;1.58;;;1.48;;
19566;SDS011;9930;49.240;8.548;2024-02-04T04:59:50;2.00;;;1.80;;
19566;SDS011;9930;49.240;8.548;2024-02-04T05:02:16;1.80;;;1.70;;
19566;SDS011;9930;49.240;8.548;2024-02-04T05:04:43;1.95;;;1.85;;
19566;SDS011;9930;49.240;8.548;2024-02-04T05:07:10;2.20;;;1.95;;
19566;SDS011;9930;49.240;8.548;2024-02-04T05:09:36;1.90;;;1.80;;
19566;SDS011;9930;49.240;8.548;2024-02-04T05:12:04;1.80;;;1.70;;
19566;SDS011;9930;49.240;8.548;2024-02-04T05:14:33;2.13;;;1.90;;
19566;SDS011;9930;49.240;8.548;2024-02-04T05:16:59;1.90;;;1.80;;
19566;SDS011;9930;49.240;8.548;2024-02-04T05:19:25;2.17;;;2.05;;
19566;SDS011;9930;49.240;8.548;2024-02-04T05:21:51;2.20;;;2.00;;
19566;SDS011;9930;49.240;8.548;2024-02-04T05:24:17;2.15;;;1.95;;
19566;SDS011;9930;49.240;8.548;2024-02-04T05:26:43;2.40;;;2.20;;
19566;SDS011;9930;49.240;8.548;2024-02-04T05:29:09;2.70;;;2.50;;
19566;SDS011;9930;49.240;8.548;2024-02-04T05:31:39;6.95;;;3.78;;
19566;SDS011;9930;49.240;8.548;2024-02-04T05:34:07;4.82;;;3.38;;
19566;SDS011;9930;49.240;8.548;2024-02-04T05:36:35;3.75;;;2.75;;
19566;SDS011;9930;49.240;8.548;2024-02-04T05:39:14;2.45;;;2.25;;
19566;SDS011;9930;49.240;8.548;2024-02-04T05:41:42;3.92;;;2.50;;
19566;SDS011;9930;49.240;8.548;2024-02-04T05:44:08;2.70;;;2.50;;
19566;SDS011;9930;49.240;8.548;2024-02-04T05:46:35;2.70;;;2.50;;
19566;SDS011;9930;49.240;8.548;2024-02-04T05:49:01;3.33;;;2.78;;
19566;SDS011;9930;49.240;8.548;2024-02-04T05:51:27;3.10;;;2.88;;
19566;SDS011;9930;49.240;8.548;2024-02-04T05:53:53;2.88;;;2.58;;
19566;SDS011;9930;49.240;8.548;2024-02-04T05:56:20;2.80;;;2.40;;
19566;SDS011;9930;49.240;8.548;2024-02-04T05:58:47;2.92;;;2.63;;
19566;SDS011;9930;49.240;8.548;2024-02-04T06:01:14;2.85;;;2.50;;
19566;SDS011;9930;49.240;8.548;2024-02-04T06:03:42;3.70;;;2.67;;
19566;SDS011;9930;49.240;8.548;2024-02-04T06:06:09;2.97;;;2.78;;
19566;SDS011;9930;49.240;8.548;2024-02-04T06:08:40;3.22;;;2.92;;
19566;SDS011;9930;49.240;8.548;2024-02-04T06:11:09;2.72;;;2.50;;
19566;SDS011;9930;49.240;8.548;2024-02-04T06:13:36;2.83;;;2.63;;
19566;SDS011;9930;49.240;8.548;2024-02-04T06:16:05;2.25;;;2.05;;
19566;SDS011;9930;49.240;8.548;2024-02-04T06:18:31;2.38;;;2.17;;
19566;SDS011;9930;49.240;8.548;2024-02-04T06:20:56;2.42;;;2.22;;
19566;SDS011;9930;49.240;8.548;2024-02-04T06:23:22;2.20;;;2.00;;
19566;SDS011;9930;49.240;8.548;2024-02-04T06:25:48;2.10;;;2.00;;
19566;SDS011;9930;49.240;8.548;2024-02-04T06:28:14;2.40;;;2.20;;
19566;SDS011;9930;49.240;8.548;2024-02-04T06:30:39;2.22;;;2.03;;
19566;SDS011;9930;49.240;8.548;2024-02-04T06:33:05;2.70;;;2.50;;
19566;SDS011;9930;49.240;8.548;2024-02-04T06:35:31;2.88;;;2.60;;
19566;SDS011;9930;49.240;8.548;2024-02-04T06:37:58;2.67;;;2.47;;
19566;SDS011;9930;49.240;8.548;2024-02-04T06:40:23;2.60;;;2.40;;
19566;SDS011;9930;49.240;8.548;2024-02-04T06:42:49;2.80;;;2.60;;
19566;SDS011;9930;49.240;8.548;2024-02-04T06:45:15;3.13;;;2.92;;
19566;SDS011;9930;49.240;8.548;2024-02-04T06:47:45;3.28;;;2.97;;
19566;SDS011;9930;49.240;8.548;2024-02-04T06:50:12;3.88;;;3.58;;
19566;SDS011;9930;49.240;8.548;2024-02-04T06:52:42;3.72;;;3.22;;
19566;SDS011;9930;49.240;8.548;2024-02-04T06:55:08;2.95;;;2.75;;
19566;SDS011;9930;49.240;8.548;2024-02-04T06:57:35;2.90;;;2.70;;
19566;SDS011;9930;49.240;8.548;2024-02-04T07:00:02;2.80;;;2.60;;
19566;SDS011;9930;49.240;8.548;2024-02-04T07:02:33;2.22;;;2.10;;
19566;SDS011;9930;49.240;8.548;2024-02-04T07:05:01;2.70;;;2.50;;
19566;SDS011;9930;49.240;8.548;2024-02-04T07:07:27;2.30;;;2.10;;
19566;SDS011;9930;49.240;8.548;2024-02-04T07:09:52;2.85;;;2.65;;
19566;SDS011;9930;49.240;8.548;2024-02-04T07:12:18;2.60;;;2.40;;
19566;SDS011;9930;49.240;8.548;2024-02-04T07:14:44;3.78;;;2.80;;
19566;SDS011;9930;49.240;8.548;2024-02-04T07:17:10;2.47;;;2.28;;
19566;SDS011;9930;49.240;8.548;2024-02-04T07:19:36;2.63;;;2.42;;
19566;SDS011;9930;49.240;8.548;2024-02-04T07:22:03;2.72;;;2.50;;
19566;SDS011;9930;49.240;8.548;2024-02-04T07:24:29;2.92;;;2.70;;
19566;SDS011;9930;49.240;8.548;2024-02-04T07:26:54;2.80;;;2.60;;
19566;SDS011;9930;49.240;8.548;2024-02-04T07:29:20;3.10;;;2.80;;
19566;SDS011;9930;49.240;8.548;2024-02-04T07:31:46;3.00;;;2.80;;
19566;SDS011;9930;49.240;8.548;2024-02-04T07:34:12;3.45;;;2.70;;
19566;SDS011;9930;49.240;8.548;2024-02-04T07:36:39;2.67;;;2.47;;
19566;SDS011;9930;49.240;8.548;2024-02-04T07:39:05;2.75;;;2.55;;
19566;SDS011;9930;49.240;8.548;2024-02-04T07:41:31;2.60;;;2.40;;
19566;SDS011;9930;49.240;8.548;2024-02-04T07:43:57;2.58;;;2.38;;
19566;SDS011;9930;49.240;8.548;2024-02-04T07:46:22;3.35;;;2.55;;
19566;SDS011;9930;49.240;8.548;2024-02-04T07:48:48;2.42;;;2.22;;
19566;SDS011;9930;49.240;8.548;2024-02-04T07:51:14;2.60;;;2.40;;
19566;SDS011;9930;49.240;8.548;2024-02-04T07:53:40;3.38;;;2.70;;
19566;SDS011;9930;49.240;8.548;2024-02-04T07:56:05;2.60;;;2.40;;
19566;SDS011;9930;49.240;8.548;2024-02-04T07:58:32;2.55;;;2.35;;
19566;SDS011;9930;49.240;8.548;2024-02-04T08:00:58;2.50;;;2.30;;
19566;SDS011;9930;49.240;8.548;2024-02-04T08:03:23;2.40;;;2.20;;
19566;SDS011;9930;49.240;8.548;2024-02-04T08:05:49;2.58;;;2.00;;
19566;SDS011;9930;49.240;8.548;2024-02-04T08:08:15;2.00;;;1.90;;
19566;SDS011;9930;49.240;8.548;2024-02-04T08:10:42;2.20;;;2.00;;
19566;SDS011;9930;49.240;8.548;2024-02-04T08:13:08;2.30;;;2.10;;
19566;SDS011;9930;49.240;8.548;2024-02-04T08:15:34;2.13;;;2.00;;
19566;SDS011;9930;49.240;8.548;2024-02-04T08:17:59;2.20;;;2.00;;
19566;SDS011;9930;49.240;8.548;2024-02-04T08:20:25;2.05;;;1.88;;
19566;SDS011;9930;49.240;8.548;2024-02-04T08:22:51;2.20;;;2.05;;
19566;SDS011;9930;49.240;8.548;2024-02-04T08:25:17;1.95;;;1.85;;
19566;SDS011;9930;49.240;8.548;2024-02-04T08:27:43;2.33;;;2.10;;
19566;SDS011;9930;49.240;8.548;2024-02-04T08:30:09;1.83;;;1.73;;
19566;SDS011;9930;49.240;8.548;2024-02-04T08:32:36;1.90;;;1.80;;
19566;SDS011;9930;49.240;8.548;2024-02-04T08:35:03;3.05;;;2.00;;
19566;SDS011;9930;49.240;8.548;2024-02-04T08:37:30;2.03;;;1.92;;
19566;SDS011;9930;49.240;8.548;2024-02-04T08:40:00;2.30;;;2.13;;
19566;SDS011;9930;49.240;8.548;2024-02-04T08:42:27;2.42;;;2.22;;
19566;SDS011;9930;49.240;8.548;2024-02-04T08:44:53;2.75;;;2.55;;
19566;SDS011;9930;49.240;8.548;2024-02-04T08:47:19;2.70;;;2.50;;
19566;SDS011;9930;49.240;8.548;2024-02-04T08:49:44;2.40;;;2.20;;
19566;SDS011;9930;49.240;8.548;2024-02-04T08:52:10;5.25;;;3.50;;
19566;SDS011;9930;49.240;8.548;2024-02-04T08:54:36;9.73;;;4.40;;
19566;SDS011;9930;49.240;8.548;2024-02-04T08:57:02;8.07;;;4.97;;
19566;SDS011;9930;49.240;8.548;2024-02-04T08:59:27;7.57;;;4.30;;
19566;SDS011;9930;49.240;8.548;2024-02-04T09:01:53;18.50;;;7.35;;
19566;SDS011;9930;49.240;8.548;2024-02-04T09:04:19;16.15;;;7.80;;
19566;SDS011;9930;49.240;8.548;2024-02-04T09:06:45;9.60;;;4.97;;
19566;SDS011;9930;49.240;8.548;2024-02-04T09:09:11;11.38;;;5.13;;
19566;SDS011;9930;49.240;8.548;2024-02-04T09:11:36;17.90;;;8.02;;
19566;SDS011;9930;49.240;8.548;2024-02-04T09:14:02;12.75;;;6.43;;
19566;SDS011;9930;49.240;8.548;2024-02-04T09:16:29;14.43;;;7.07;;
19566;SDS011;9930;49.240;8.548;2024-02-04T09:18:55;11.13;;;5.90;;
19566;SDS011;9930;49.240;8.548;2024-02-04T09:21:20;19.45;;;9.82;;
19566;SDS011;9930;49.240;8.548;2024-02-04T09:23:47;8.23;;;4.55;;
19566;SDS011;9930;49.240;8.548;2024-02-04T09:26:13;7.78;;;4.30;;
19566;SDS011;9930;49.240;8.548;2024-02-04T09:28:39;10.45;;;6.13;;
19566;SDS011;9930;49.240;8.548;2024-02-04T09:31:07;12.13;;;7.40;;
19566;SDS011;9930;49.240;8.548;2024-02-04T09:33:34;5.90;;;4.13;;
19566;SDS011;9930;49.240;8.548;2024-02-04T09:36:00;4.93;;;3.40;;
19566;SDS011;9930;49.240;8.548;2024-02-04T09:38:26;5.75;;;4.50;;
19566;SDS011;9930;49.240;8.548;2024-02-04T09:40:52;4.68;;;3.40;;
19566;SDS011;9930;49.240;8.548;2024-02-04T09:43:18;3.08;;;2.78;;
19566;SDS011;9930;49.240;8.548;2024-02-04T09:45:45;2.58;;;2.38;;
19566;SDS011;9930;49.240;8.548;2024-02-04T09:48:14;2.30;;;2.10;;
19566;SDS011;9930;49.240;8.548;2024-02-04T09:50:45;2.35;;;2.15;;
19566;SDS011;9930;49.240;8.548;2024-02-04T09:53:14;2.33;;;2.13;;
19566;SDS011;9930;49.240;8.548;2024-02-04T09:55:47;1.90;;;1.77;;
19566;SDS011;9930;49.240;8.548;2024-02-04T09:58:15;1.98;;;1.85;;
19566;SDS011;9930;49.240;8.548;2024-02-04T10:00:42;1.85;;;1.67;;
19566;SDS011;9930;49.240;8.548;2024-02-04T10:03:13;1.90;;;1.70;;
19566;SDS011;9930;49.240;8.548;2024-02-04T10:05:39;2.10;;;1.70;;
19566;SDS011;9930;49.240;8.548;2024-02-04T10:08:04;1.70;;;1.60;;
19566;SDS011;9930;49.240;8.548;2024-02-04T10:10:30;1.67;;;1.58;;
19566;SDS011;9930;49.240;8.548;2024-02-04T10:12:57;2.17;;;1.58;;
19566;SDS011;9930;49.240;8.548;2024-02-04T10:15:23;1.67;;;1.58;;
19566;SDS011;9930;49.240;8.548;2024-02-04T10:17:48;1.45;;;1.35;;
19566;SDS011;9930;49.240;8.548;2024-02-04T10:20:15;1.40;;;1.30;;
19566;SDS011;9930;49.240;8.548;2024-02-04T10:22:41;1.10;;;1.10;;
19566;SDS011;9930;49.240;8.548;2024-02-04T10:25:09;1.50;;;1.40;;
19566;SDS011;9930;49.240;8.548;2024-02-04T10:27:40;1.50;;;1.40;;
19566;SDS011;9930;49.240;8.548;2024-02-04T10:30:07;1.83;;;1.42;;
19566;SDS011;9930;49.240;8.548;2024-02-04T10:32:33;1.30;;;1.20;;
19566;SDS011;9930;49.240;8.548;2024-02-04T10:34:59;1.50;;;1.40;;
19566;SDS011;9930;49.240;8.548;2024-02-04T10:37:26;1.75;;;1.40;;
19566;SDS011;9930;49.240;8.548;2024-02-04T10:39:53;1.52;;;1.42;;
19566;SDS011;9930;49.240;8.548;2024-02-04T10:42:21;1.60;;;1.50;;
19566;SDS011;9930;49.240;8.548;2024-02-04T10:44:51;1.50;;;1.40;;
19566;SDS011;9930;49.240;8.548;2024-02-04T10:47:22;1.40;;;1.30;;
19566;SDS011;9930;49.240;8.548;2024-02-04T10:49:50;1.30;;;1.20;;
19566;SDS011;9930;49.240;8.548;2024-02-04T10:52:19;1.42;;;1.23;;
19566;SDS011;9930;49.240;8.548;2024-02-04T10:54:48;1.02;;;1.02;;
19566;SDS011;9930;49.240;8.548;2024-02-04T10:57:17;1.08;;;1.00;;
19566;SDS011;9930;49.240;8.548;2024-02-04T10:59:51;0.90;;;0.90;;
19566;SDS011;9930;49.240;8.548;2024-02-04T11:02:19;0.80;;;0.80;;
19566;SDS011;9930;49.240;8.548;2024-02-04T11:04:48;1.10;;;0.95;;
19566;SDS011;9930;49.240;8.548;2024-02-04T11:07:15;0.68;;;0.68;;
19566;SDS011;9930;49.240;8.548;2024-02-04T11:09:48;0.80;;;0.80;;
19566;SDS011;9930;49.240;8.548;2024-02-04T11:12:17;0.80;;;0.80;;
19566;SDS011;9930;49.240;8.548;2024-02-04T11:14:46;0.90;;;0.90;;
19566;SDS011;9930;49.240;8.548;2024-02-04T11:20:12;1.20;;;1.10;;
19566;SDS011;9930;49.240;8.548;2024-02-04T11:22:49;1.20;;;1.10;;
19566;SDS011;9930;49.240;8.548;2024-02-04T11:25:41;0.80;;;0.80;;
19566;SDS011;9930;49.240;8.548;2024-02-04T11:28:16;0.80;;;0.80;;
19566;SDS011;9930;49.240;8.548;2024-02-04T11:30:46;0.80;;;0.80;;
19566;SDS011;9930;49.240;8.548;2024-02-04T11:33:19;1.30;;;1.20;;
19566;SDS011;9930;49.240;8.548;2024-02-04T11:35:57;1.10;;;1.10;;
19566;SDS011;9930;49.240;8.548;2024-02-04T11:38:30;0.90;;;0.90;;
19566;SDS011;9930;49.240;8.548;2024-02-04T11:41:03;1.35;;;1.23;;
19566;SDS011;9930;49.240;8.548;2024-02-04T11:43:32;0.88;;;0.88;;
19566;SDS011;9930;49.240;8.548;2024-02-04T11:46:04;1.13;;;1.05;;
19566;SDS011;9930;49.240;8.548;2024-02-04T11:48:31;0.90;;;0.90;;
19566;SDS011;9930;49.240;8.548;2024-02-04T11:50:59;1.35;;;1.00;;
19566;SDS011;9930;49.240;8.548;2024-02-04T11:53:28;1.27;;;0.90;;
19566;SDS011;9930;49.240;8.548;2024-02-04T11:55:58;1.00;;;0.98;;
19566;SDS011;9930;49.240;8.548;2024-02-04T11:58:26;1.48;;;1.10;;
19566;SDS011;9930;49.240;8.548;2024-02-04T12:00:52;1.10;;;1.00;;
19566;SDS011;9930;49.240;8.548;2024-02-04T12:03:29;1.50;;;1.25;;
19566;SDS011;9930;49.240;8.548;2024-02-04T12:05:56;1.40;;;1.30;;
19566;SDS011;9930;49.240;8.548;2024-02-04T12:08:23;1.08;;;1.08;;
19566;SDS011;9930;49.240;8.548;2024-02-04T12:10:52;1.20;;;1.10;;
19566;SDS011;9930;49.240;8.548;2024-02-04T12:13:19;0.98;;;0.98;;
19566;SDS011;9930;49.240;8.548;2024-02-04T12:15:46;1.10;;;1.00;;
19566;SDS011;9930;49.240;8.548;2024-02-04T12:18:13;1.35;;;1.15;;
19566;SDS011;9930;49.240;8.548;2024-02-04T12:20:41;2.03;;;1.77;;
19566;SDS011;9930;49.240;8.548;2024-02-04T12:23:07;2.58;;;2.38;;
19566;SDS011;9930;49.240;8.548;2024-02-04T12:25:33;3.30;;;3.00;;
19566;SDS011;9930;49.240;8.548;2024-02-04T12:28:00;2.55;;;2.35;;
19566;SDS011;9930;49.240;8.548;2024-02-04T12:30:28;3.13;;;2.83;;
19566;SDS011;9930;49.240;8.548;2024-02-04T12:32:56;3.03;;;2.55;;
19566;SDS011;9930;49.240;8.548;2024-02-04T12:35:27;3.40;;;2.35;;
19566;SDS011;9930;49.240;8.548;2024-02-04T12:37:54;5.45;;;3.70;;
19566;SDS011;9930;49.240;8.548;2024-02-04T12:40:22;13.40;;;7.20;;
19566;SDS011;9930;49.240;8.548;2024-02-04T12:42:55;6.30;;;4.35;;
19566;SDS011;9930;49.240;8.548;2024-02-04T12:45:29;3.83;;;2.58;;
19566;SDS011;9930;49.240;8.548;2024-02-04T12:47:55;5.57;;;3.42;;
19566;SDS011;9930;49.240;8.548;2024-02-04T12:50:23;2.50;;;2.08;;
19566;SDS011;9930;49.240;8.548;2024-02-04T12:53:01;2.85;;;2.13;;
19566;SDS011;9930;49.240;8.548;2024-02-04T12:55:34;3.45;;;2.45;;
19566;SDS011;9930;49.240;8.548;2024-02-04T12:58:02;2.13;;;1.92;;
19566;SDS011;9930;49.240;8.548;2024-02-04T13:00:44;2.97;;;1.90;;
19566;SDS011;9930;49.240;8.548;2024-02-04T13:03:10;4.10;;;3.35;;
19566;SDS011;9930;49.240;8.548;2024-02-04T13:05:38;4.90;;;3.70;;
19566;SDS011;9930;49.240;8.548;2024-02-04T13:08:04;3.75;;;2.85;;
19566;SDS011;9930;49.240;8.548;2024-02-04T13:10:31;3.00;;;2.20;;
19566;SDS011;9930;49.240;8.548;2024-02-04T13:15:37;3.00;;;2.70;;
19566;SDS011;9930;49.240;8.548;2024-02-04T13:18:05;1.50;;;1.40;;
19566;SDS011;9930;49.240;8.548;2024-02-04T13:20:32;2.00;;;1.80;;
19566;SDS011;9930;49.240;8.548;2024-02-04T13:22:58;1.63;;;1.52;;
19566;SDS011;9930;49.240;8.548;2024-02-04T13:25:25;1.88;;;1.77;;
19566;SDS011;9930;49.240;8.548;2024-02-04T13:27:51;1.80;;;1.70;;
19566;SDS011;9930;49.240;8.548;2024-02-04T13:30:19;1.50;;;1.40;;
19566;SDS011;9930;49.240;8.548;2024-02-04T13:32:45;1.50;;;1.40;;
19566;SDS011;9930;49.240;8.548;2024-02-04T13:35:15;1.70;;;1.60;;
19566;SDS011;9930;49.240;8.548;2024-02-04T13:37:43;1.55;;;1.45;;
19566;SDS011;9930;49.240;8.548;2024-02-04T13:40:19;1.50;;;1.40;;
19566;SDS011;9930;49.240;8.548;2024-02-04T13:42:46;1.38;;;1.27;;
19566;SDS011;9930;49.240;8.548;2024-02-04T13:45:15;1.33;;;1.25;;
19566;SDS011;9930;49.240;8.548;2024-02-04T13:47:44;1.83;;;1.67;;
19566;SDS011;9930;49.240;8.548;2024-02-04T13:50:10;1.40;;;1.30;;
19566;SDS011;9930;49.240;8.548;2024-02-04T13:52:36;1.50;;;1.40;;
19566;SDS011;9930;49.240;8.548;2024-02-04T13:55:03;1.30;;;1.20;;
19566;SDS011;9930;49.240;8.548;2024-02-04T13:57:33;1.25;;;1.08;;
19566;SDS011;9930;49.240;8.548;2024-02-04T14:00:01;1.45;;;1.35;;
19566;SDS011;9930;49.240;8.548;2024-02-04T14:02:32;1.65;;;1.55;;
19566;SDS011;9930;49.240;8.548;2024-02-04T14:04:58;1.60;;;1.50;;
19566;SDS011;9930;49.240;8.548;2024-02-04T14:07:25;1.55;;;1.45;;
19566;SDS011;9930;49.240;8.548;2024-02-04T14:09:51;1.15;;;1.08;;
19566;SDS011;9930;49.240;8.548;2024-02-04T14:12:18;1.58;;;1.30;;
19566;SDS011;9930;49.240;8.548;2024-02-04T14:14:45;1.40;;;1.30;;
19566;SDS011;9930;49.240;8.548;2024-02-04T14:17:11;1.48;;;1.00;;
19566;SDS011;9930;49.240;8.548;2024-02-04T14:19:36;1.25;;;1.15;;
19566;SDS011;9930;49.240;8.548;2024-02-04T14:22:02;1.65;;;1.55;;
19566;SDS011;9930;49.240;8.548;2024-02-04T14:24:28;1.50;;;1.30;;
19566;SDS011;9930;49.240;8.548;2024-02-04T14:26:57;2.10;;;1.90;;
19566;SDS011;9930;49.240;8.548;2024-02-04T14:29:24;1.75;;;1.65;;
19566;SDS011;9930;49.240;8.548;2024-02-04T14:31:51;1.58;;;1.48;;
19566;SDS011;9930;49.240;8.548;2024-02-04T14:34:18;1.42;;;1.33;;
19566;SDS011;9930;49.240;8.548;2024-02-04T14:36:45;1.13;;;1.13;;
19566;SDS011;9930;49.240;8.548;2024-02-04T14:39:11;1.30;;;1.20;;
19566;SDS011;9930;49.240;8.548;2024-02-04T14:41:37;1.30;;;1.20;;
19566;SDS011;9930;49.240;8.548;2024-02-04T14:44:03;4.45;;;2.55;;
19566;SDS011;9930;49.240;8.548;2024-02-04T14:46:29;5.60;;;2.55;;
19566;SDS011;9930;49.240;8.548;2024-02-04T14:48:54;5.97;;;3.20;;
19566;SDS011;9930;49.240;8.548;2024-02-04T14:51:21;5.93;;;3.30;;
19566;SDS011;9930;49.240;8.548;2024-02-04T14:53:47;3.88;;;2.58;;
19566;SDS011;9930;49.240;8.548;2024-02-04T14:56:14;5.15;;;3.50;;
19566;SDS011;9930;49.240;8.548;2024-02-04T14:58:39;6.95;;;4.28;;
19566;SDS011;9930;49.240;8.548;2024-02-04T15:01:07;7.22;;;4.40;;
19566;SDS011;9930;49.240;8.548;2024-02-04T15:03:34;5.53;;;3.58;;
19566;SDS011;9930;49.240;8.548;2024-02-04T15:06:00;5.22;;;3.22;;
19566;SDS011;9930;49.240;8.548;2024-02-04T15:08:25;5.40;;;4.00;;
19566;SDS011;9930;49.240;8.548;2024-02-04T15:10:51;7.93;;;4.85;;
19566;SDS011;9930;49.240;8.548;2024-02-04T15:13:17;4.47;;;3.72;;